createdAt,value
2018-05-13T00:01:12.132Z,17.48
2018-05-13T00:03:38.777Z,22.08
2018-05-13T00:06:05.428Z,17.55
2018-05-13T00:08:32.064Z,17.92
2018-05-13T00:10:58.691Z,17.02
2018-05-13T00:13:25.429Z,18.20
2018-05-13T00:15:52.062Z,19.77
2018-05-13T00:18:18.702Z,18.30
2018-05-13T00:20:45.327Z,18.48
2018-05-13T00:23:11.962Z,17.95
2018-05-13T00:25:38.604Z,18.85
2018-05-13T00:28:05.263Z,17.60
2018-05-13T00:30:31.902Z,16.17
2018-05-13T00:32:58.651Z,16.27
2018-05-13T00:35:25.386Z,19.62
2018-05-13T00:37:52.150Z,16.20
2018-05-13T00:40:18.876Z,17.60
2018-05-13T00:42:45.615Z,16.75
2018-05-13T00:45:12.243Z,16.60
2018-05-13T00:47:38.890Z,16.30
2018-05-13T00:50:05.536Z,19.05
2018-05-13T00:52:32.195Z,15.65
2018-05-13T00:54:58.829Z,16.55
2018-05-13T00:57:25.449Z,17.67
2018-05-13T00:59:52.087Z,17.00
2018-05-13T01:02:18.710Z,15.90
2018-05-13T01:04:45.367Z,17.35
2018-05-13T01:07:11.995Z,17.65
2018-05-13T01:09:38.638Z,15.68
2018-05-13T01:12:05.261Z,17.42
2018-05-13T01:14:31.909Z,17.35
2018-05-13T01:16:58.534Z,18.05
2018-05-13T01:19:25.204Z,18.33
2018-05-13T01:21:51.842Z,16.98
2018-05-13T01:24:18.482Z,17.55
2018-05-13T01:26:45.220Z,18.08
2018-05-13T01:29:11.863Z,18.48
2018-05-13T01:31:38.599Z,17.75
2018-05-13T01:34:05.348Z,17.75
2018-05-13T01:36:31.984Z,17.83
2018-05-13T01:38:58.718Z,17.85
2018-05-13T01:41:25.354Z,18.17
2018-05-13T01:43:52.003Z,18.15
2018-05-13T01:46:18.743Z,20.95
2018-05-13T01:48:45.362Z,17.50
2018-05-13T01:51:12.023Z,18.83
2018-05-13T01:53:38.642Z,18.25
2018-05-13T01:56:05.277Z,19.58
2018-05-13T01:58:31.915Z,17.40
2018-05-13T02:00:58.580Z,20.10
2018-05-13T02:03:25.328Z,17.55
2018-05-13T02:05:51.963Z,16.70
2018-05-13T02:08:18.701Z,16.98
2018-05-13T02:10:45.347Z,14.48
2018-05-13T02:13:12.004Z,17.33
2018-05-13T02:15:38.744Z,16.15
2018-05-13T02:18:05.375Z,16.45
2018-05-13T02:20:32.125Z,16.62
2018-05-13T02:22:58.763Z,17.55
2018-05-13T02:25:25.406Z,16.50
2018-05-13T02:27:52.041Z,18.70
2018-05-13T02:30:18.682Z,15.30
2018-05-13T02:32:45.307Z,17.65
2018-05-13T02:35:11.962Z,16.50
2018-05-13T02:37:38.670Z,16.12
2018-05-13T02:40:05.304Z,17.37
2018-05-13T02:42:31.951Z,17.30
2018-05-13T02:44:58.584Z,16.52
2018-05-13T02:47:25.334Z,15.65
2018-05-13T02:49:52.000Z,17.62
2018-05-13T02:52:18.728Z,16.37
2018-05-13T02:54:45.354Z,24.70
2018-05-13T02:57:12.100Z,19.83
2018-05-13T02:59:38.731Z,19.27
2018-05-13T03:02:05.366Z,16.60
2018-05-13T03:04:31.996Z,18.75
2018-05-13T03:06:58.751Z,19.25
2018-05-13T03:09:25.375Z,16.85
2018-05-13T03:11:52.059Z,20.92
2018-05-13T03:14:18.775Z,18.20
2018-05-13T03:16:45.515Z,20.00
2018-05-13T03:19:12.140Z,16.42
2018-05-13T03:21:38.780Z,17.35
2018-05-13T03:24:05.535Z,20.90
2018-05-13T03:26:32.168Z,15.32
2018-05-13T03:28:58.915Z,17.10
2018-05-13T03:31:25.551Z,15.05
2018-05-13T03:33:52.196Z,16.62
2018-05-13T03:36:18.823Z,16.37
2018-05-13T03:38:45.463Z,15.10
2018-05-13T03:41:12.091Z,14.57
2018-05-13T03:43:38.751Z,15.43
2018-05-13T03:46:05.382Z,16.08
2018-05-13T03:48:32.030Z,16.23
2018-05-13T03:50:58.663Z,14.80
2018-05-13T03:53:25.312Z,15.63
2018-05-13T03:55:51.972Z,16.67
2018-05-13T03:58:18.621Z,17.80
2018-05-13T04:00:45.243Z,15.43
2018-05-13T04:03:11.958Z,16.60
2018-05-13T04:05:38.592Z,15.60
2018-05-13T04:08:20.123Z,16.55
2018-05-13T04:10:52.679Z,18.42
2018-05-13T04:13:25.256Z,15.90
2018-05-13T04:15:51.878Z,16.62
2018-05-13T04:18:18.527Z,18.37
2018-05-13T04:20:45.262Z,16.08
2018-05-13T04:23:11.902Z,15.02
2018-05-13T04:25:38.543Z,15.15
2018-05-13T04:28:05.172Z,15.27
2018-05-13T04:30:31.814Z,15.60
2018-05-13T04:32:58.439Z,14.57
2018-05-13T04:35:25.074Z,15.75
2018-05-13T04:37:51.703Z,16.98
2018-05-13T04:40:18.348Z,16.48
2018-05-13T04:42:44.988Z,16.35
2018-05-13T04:45:11.636Z,18.25
2018-05-13T04:47:38.290Z,16.30
2018-05-13T04:50:04.918Z,16.62
2018-05-13T04:52:31.584Z,17.15
2018-05-13T04:54:58.239Z,18.48
2018-05-13T04:57:24.879Z,16.87
2018-05-13T04:59:51.588Z,19.42
2018-05-13T05:02:18.232Z,16.45
2018-05-13T05:04:44.858Z,15.85
2018-05-13T05:07:11.620Z,16.30
2018-05-13T05:09:38.351Z,15.75
2018-05-13T05:12:05.048Z,17.40
2018-05-13T05:14:31.683Z,17.90
2018-05-13T05:16:58.318Z,16.83
2018-05-13T05:19:24.951Z,18.10
2018-05-13T05:21:51.596Z,18.17
2018-05-13T05:24:18.234Z,16.87
2018-05-13T05:26:44.888Z,16.52
2018-05-13T05:29:11.532Z,16.73
2018-05-13T05:31:38.185Z,17.75
2018-05-13T05:34:04.876Z,17.00
2018-05-13T05:36:31.595Z,19.02
2018-05-13T05:38:58.329Z,19.62
2018-05-13T05:41:24.968Z,17.33
2018-05-13T05:43:51.710Z,16.42
2018-05-13T05:46:18.350Z,17.23
2018-05-13T05:48:45.000Z,15.75
2018-05-13T05:51:11.635Z,18.12
2018-05-13T05:53:38.374Z,19.30
2018-05-13T05:56:05.111Z,17.98
2018-05-13T05:58:31.880Z,19.98
2018-05-13T06:00:58.503Z,19.45
2018-05-13T06:03:25.235Z,16.50
2018-05-13T06:05:52.002Z,17.48
2018-05-13T06:08:18.643Z,17.25
2018-05-13T06:10:45.279Z,18.00
2018-05-13T06:13:12.026Z,16.95
2018-05-13T06:15:38.740Z,18.90
2018-05-13T06:18:05.382Z,18.23
2018-05-13T06:20:32.007Z,16.83
2018-05-13T06:22:58.653Z,19.70
2018-05-13T06:25:25.278Z,21.37
2018-05-13T06:27:51.937Z,15.80
2018-05-13T06:30:18.680Z,15.85
2018-05-13T06:32:45.415Z,14.13
2018-05-13T06:35:12.150Z,16.58
2018-05-13T06:37:38.778Z,18.42
2018-05-13T06:40:05.434Z,16.60
2018-05-13T06:42:32.072Z,15.48
2018-05-13T06:44:58.724Z,18.17
2018-05-13T06:47:25.359Z,17.95
2018-05-13T06:49:52.018Z,14.87
2018-05-13T06:52:18.653Z,14.95
2018-05-13T06:54:45.366Z,13.73
2018-05-13T06:57:12.014Z,14.20
2018-05-13T06:59:38.672Z,19.42
2018-05-13T07:02:05.400Z,13.90
2018-05-13T07:04:32.042Z,18.23
2018-05-13T07:06:58.671Z,14.25
2018-05-13T07:09:25.348Z,16.20
2018-05-13T07:11:51.957Z,14.87
2018-05-13T07:14:18.599Z,13.80
2018-05-13T07:16:45.237Z,14.80
2018-05-13T07:19:11.893Z,15.23
2018-05-13T07:21:38.532Z,16.73
2018-05-13T07:24:05.169Z,16.15
2018-05-13T07:26:31.887Z,15.13
2018-05-13T07:28:58.627Z,14.60
2018-05-13T07:31:25.263Z,16.95
2018-05-13T07:33:51.883Z,13.95
2018-05-13T07:36:18.522Z,14.35
2018-05-13T07:38:45.155Z,13.98
2018-05-13T07:41:11.794Z,14.87
2018-05-13T07:43:38.471Z,19.35
2018-05-13T07:46:05.125Z,14.90
2018-05-13T07:48:31.755Z,14.02
2018-05-13T07:50:58.449Z,13.30
2018-05-13T07:53:25.048Z,14.68
2018-05-13T07:55:51.754Z,15.60
2018-05-13T07:58:18.414Z,15.52
2018-05-13T08:00:45.047Z,12.52
2018-05-13T08:03:11.775Z,12.10
2018-05-13T08:05:38.537Z,16.12
2018-05-13T08:08:05.178Z,12.52
2018-05-13T08:10:31.802Z,11.63
2018-05-13T08:12:58.534Z,10.43
2018-05-13T08:15:25.204Z,12.57
2018-05-13T08:17:51.947Z,16.17
2018-05-13T08:20:18.785Z,15.50
2018-05-13T08:22:45.309Z,10.65
2018-05-13T08:25:11.966Z,12.75
2018-05-13T08:27:38.640Z,13.15
2018-05-13T08:30:05.314Z,14.20
2018-05-13T08:32:32.088Z,13.32
2018-05-13T08:34:58.714Z,11.35
2018-05-13T08:37:25.360Z,11.82
2018-05-13T08:39:52.107Z,12.13
2018-05-13T08:42:18.746Z,12.05
2018-05-13T08:44:45.459Z,11.52
2018-05-13T08:47:12.094Z,11.43
2018-05-13T08:49:38.717Z,11.77
2018-05-13T08:52:05.384Z,11.20
2018-05-13T08:54:32.016Z,12.68
2018-05-13T08:56:58.759Z,11.48
2018-05-13T08:59:25.504Z,11.80
2018-05-13T09:01:52.243Z,9.88
2018-05-13T09:04:18.883Z,12.55
2018-05-13T09:06:45.628Z,11.63
2018-05-13T09:09:12.375Z,11.70
2018-05-13T09:11:39.011Z,10.73
2018-05-13T09:14:05.753Z,10.63
2018-05-13T09:16:32.388Z,11.90
2018-05-13T09:18:59.127Z,10.60
2018-05-13T09:21:25.868Z,10.32
2018-05-13T09:23:52.611Z,10.38
2018-05-13T09:26:19.350Z,14.05
2018-05-13T09:28:46.015Z,11.68
2018-05-13T09:31:12.739Z,10.00
2018-05-13T09:33:39.378Z,10.38
2018-05-13T09:36:06.503Z,9.77
2018-05-13T09:38:33.164Z,9.07
2018-05-13T09:40:59.903Z,9.70
2018-05-13T09:43:26.538Z,9.82
2018-05-13T09:45:53.250Z,11.88
2018-05-13T09:48:19.814Z,8.80
2018-05-13T09:50:47.304Z,9.70
2018-05-13T09:53:14.019Z,9.48
2018-05-13T09:55:40.764Z,8.77
2018-05-13T09:58:07.398Z,8.32
2018-05-13T10:00:34.051Z,8.73
2018-05-13T10:03:00.669Z,10.32
2018-05-13T10:05:27.420Z,11.98
2018-05-13T10:07:54.050Z,13.18
2018-05-13T10:10:20.793Z,9.38
2018-05-13T10:12:47.434Z,9.07
2018-05-13T10:15:14.069Z,8.95
2018-05-13T10:17:40.700Z,9.38
2018-05-13T10:20:07.359Z,8.18
2018-05-13T10:22:33.977Z,8.35
2018-05-13T10:25:00.618Z,8.07
2018-05-13T10:27:27.248Z,7.53
2018-05-13T10:29:53.939Z,7.75
2018-05-13T10:32:20.572Z,7.72
2018-05-13T10:34:47.207Z,7.05
2018-05-13T10:37:13.856Z,7.95
2018-05-13T10:39:40.488Z,8.73
2018-05-13T10:42:07.114Z,7.70
2018-05-13T10:44:33.735Z,7.83
2018-05-13T10:47:00.483Z,7.18
2018-05-13T10:49:27.098Z,9.23
2018-05-13T10:51:53.774Z,12.83
2018-05-13T10:54:21.249Z,9.10
2018-05-13T10:56:47.968Z,9.40
2018-05-13T10:59:14.586Z,9.70
2018-05-13T11:01:41.221Z,8.83
2018-05-13T11:04:07.844Z,10.67
2018-05-13T11:06:34.545Z,8.50
2018-05-13T11:09:01.254Z,9.57
2018-05-13T11:11:28.031Z,9.43
2018-05-13T11:13:55.285Z,8.30
2018-05-13T11:16:22.272Z,8.30
2018-05-13T11:18:49.430Z,15.67
2018-05-13T11:21:16.066Z,7.13
2018-05-13T11:23:42.691Z,10.00
2018-05-13T11:26:09.307Z,9.60
2018-05-13T11:28:37.185Z,6.73
2018-05-13T11:31:03.872Z,11.43
2018-05-13T11:33:30.519Z,11.90
2018-05-13T11:35:57.155Z,9.93
2018-05-13T11:38:23.899Z,11.33
2018-05-13T11:40:50.515Z,8.13
2018-05-13T11:43:17.180Z,7.87
2018-05-13T11:45:43.798Z,8.17
2018-05-13T11:48:10.461Z,7.10
2018-05-13T11:50:37.100Z,7.30
2018-05-13T11:53:03.787Z,10.77
2018-05-13T11:55:30.411Z,7.50
2018-05-13T11:57:57.094Z,10.10
2018-05-13T12:00:23.760Z,8.93
2018-05-13T12:02:50.491Z,7.93
2018-05-13T12:05:17.136Z,8.23
2018-05-13T12:07:43.770Z,7.77
2018-05-13T12:10:10.389Z,8.67
2018-05-13T12:12:37.035Z,9.50
2018-05-13T12:15:03.720Z,8.63
2018-05-13T12:17:30.302Z,8.40
2018-05-13T12:19:56.972Z,11.10
2018-05-13T12:22:23.707Z,11.40
2018-05-13T12:24:50.344Z,8.80
2018-05-13T12:27:16.972Z,11.33
2018-05-13T12:29:43.607Z,8.60
2018-05-13T12:32:10.271Z,8.67
2018-05-13T12:34:37.002Z,8.47
2018-05-13T12:37:03.622Z,9.80
2018-05-13T12:39:30.254Z,7.67
2018-05-13T12:41:56.922Z,10.90
2018-05-13T12:44:23.558Z,9.43
2018-05-13T12:46:50.173Z,7.83
2018-05-13T12:49:16.807Z,8.53
2018-05-13T12:51:43.446Z,7.87
2018-05-13T12:54:10.092Z,7.60
2018-05-13T12:56:36.758Z,8.20
2018-05-13T12:59:03.495Z,7.83
2018-05-13T13:01:30.139Z,10.90
2018-05-13T13:03:56.780Z,7.30
2018-05-13T13:06:23.415Z,7.93
2018-05-13T13:08:50.059Z,7.70
2018-05-13T13:11:16.790Z,6.40
2018-05-13T13:13:43.419Z,6.90
2018-05-13T13:16:10.056Z,9.13
2018-05-13T13:18:36.679Z,7.50
2018-05-13T13:21:03.307Z,7.67
2018-05-13T13:23:29.935Z,9.77
2018-05-13T13:25:56.663Z,10.73
2018-05-13T13:28:23.376Z,8.30
2018-05-13T13:30:50.006Z,8.97
2018-05-13T13:33:16.630Z,12.13
2018-05-13T13:35:43.272Z,9.97
2018-05-13T13:38:09.905Z,11.47
2018-05-13T13:40:36.548Z,10.10
2018-05-13T13:43:03.171Z,7.43
2018-05-13T13:45:29.808Z,6.50
2018-05-13T13:47:56.430Z,7.37
2018-05-13T13:50:23.058Z,6.90
2018-05-13T13:52:49.674Z,7.07
2018-05-13T13:55:16.403Z,6.07
2018-05-13T13:57:43.041Z,6.33
2018-05-13T14:00:09.658Z,5.97
2018-05-13T14:02:36.289Z,6.57
2018-05-13T14:05:02.961Z,7.53
2018-05-13T14:07:29.603Z,11.17
2018-05-13T14:09:56.214Z,7.13
2018-05-13T14:12:22.868Z,6.17
2018-05-13T14:14:49.519Z,4.57
2018-05-13T14:17:16.155Z,5.50
2018-05-13T14:19:42.781Z,9.20
2018-05-13T14:22:09.433Z,5.93
2018-05-13T14:24:36.057Z,5.70
2018-05-13T14:27:02.787Z,5.73
2018-05-13T14:29:29.351Z,7.07
2018-05-13T14:31:56.004Z,5.30
2018-05-13T14:34:22.623Z,6.30
2018-05-13T14:36:49.371Z,6.03
2018-05-13T14:39:16.005Z,9.30
2018-05-13T14:41:42.640Z,7.80
2018-05-13T14:44:09.255Z,6.27
2018-05-13T14:46:35.881Z,6.00
2018-05-13T14:49:02.591Z,5.77
2018-05-13T14:51:29.309Z,4.97
2018-05-13T14:53:55.939Z,4.27
2018-05-13T14:56:22.576Z,5.17
2018-05-13T14:58:49.231Z,5.57
2018-05-13T15:01:15.850Z,5.27
2018-05-13T15:03:42.482Z,4.63
2018-05-13T15:06:09.098Z,8.43
2018-05-13T15:08:35.740Z,9.40
2018-05-13T15:11:02.415Z,4.53
2018-05-13T15:13:29.042Z,5.77
2018-05-13T15:15:55.663Z,7.30
2018-05-13T15:18:22.294Z,8.80
2018-05-13T15:20:49.001Z,6.80
2018-05-13T15:23:15.627Z,5.60
2018-05-13T15:25:42.355Z,4.90
2018-05-13T15:28:09.096Z,4.83
2018-05-13T15:30:35.715Z,6.30
2018-05-13T15:33:02.331Z,5.00
2018-05-13T15:35:29.023Z,6.20
2018-05-13T15:37:55.648Z,5.70
2018-05-13T15:40:22.408Z,7.80
2018-05-13T15:42:49.142Z,6.20
2018-05-13T15:45:15.774Z,5.70
2018-05-13T15:47:42.396Z,6.33
2018-05-13T15:50:09.040Z,6.47
2018-05-13T15:52:35.688Z,5.80
2018-05-13T15:55:02.434Z,5.90
2018-05-13T15:57:28.969Z,5.27
2018-05-13T15:59:55.611Z,4.87
2018-05-13T16:02:22.244Z,8.90
2018-05-13T16:04:48.875Z,6.67
2018-05-13T16:07:15.500Z,5.30
2018-05-13T16:09:42.133Z,5.50
2018-05-13T16:12:08.829Z,5.60
2018-05-13T16:14:35.410Z,6.43
2018-05-13T16:17:02.081Z,6.03
2018-05-13T16:19:28.718Z,8.43
2018-05-13T16:21:55.347Z,6.73
2018-05-13T16:24:21.984Z,10.60
2018-05-13T16:26:48.611Z,8.57
2018-05-13T16:29:15.278Z,11.17
2018-05-13T16:31:42.023Z,8.05
2018-05-13T16:34:08.657Z,10.70
2018-05-13T16:36:35.304Z,8.10
2018-05-13T16:39:02.030Z,8.02
2018-05-13T16:41:28.775Z,7.65
2018-05-13T16:43:55.414Z,12.98
2018-05-13T16:46:22.142Z,9.45
2018-05-13T16:48:48.708Z,11.05
2018-05-13T16:51:15.347Z,9.48
2018-05-13T16:53:41.982Z,12.15
2018-05-13T16:56:08.724Z,16.05
2018-05-13T16:58:35.382Z,9.70
2018-05-13T17:01:02.098Z,17.00
2018-05-13T17:03:28.726Z,13.45
2018-05-13T17:05:55.363Z,11.32
2018-05-13T17:08:22.013Z,12.40
2018-05-13T17:10:48.640Z,12.70
2018-05-13T17:13:15.406Z,13.85
2018-05-13T17:15:42.134Z,15.65
2018-05-13T17:18:08.870Z,12.40
2018-05-13T17:20:35.524Z,14.95
2018-05-13T17:23:02.246Z,14.68
2018-05-13T17:25:28.817Z,16.40
2018-05-13T17:27:55.567Z,15.68
2018-05-13T17:30:22.331Z,16.10
2018-05-13T17:32:48.926Z,17.98
2018-05-13T17:35:15.561Z,15.93
2018-05-13T17:37:42.300Z,16.20
2018-05-13T17:40:08.851Z,13.23
2018-05-13T17:42:35.496Z,13.82
2018-05-13T17:45:02.126Z,14.32
2018-05-13T17:47:28.851Z,14.55
2018-05-13T17:49:55.566Z,14.80
2018-05-13T17:52:22.242Z,15.32
2018-05-13T17:54:48.876Z,14.23
2018-05-13T17:57:15.640Z,14.07
2018-05-13T17:59:42.280Z,13.88
2018-05-13T18:02:08.916Z,12.48
2018-05-13T18:04:35.630Z,13.30
2018-05-13T18:07:02.300Z,12.45
2018-05-13T18:09:28.947Z,12.52
2018-05-13T18:11:55.572Z,11.88
2018-05-13T18:14:22.295Z,13.23
2018-05-13T18:16:49.057Z,13.10
2018-05-13T18:19:15.780Z,15.70
2018-05-13T18:21:42.411Z,15.02
2018-05-13T18:24:09.141Z,11.43
2018-05-13T18:26:35.773Z,10.60
2018-05-13T18:29:02.418Z,11.55
2018-05-13T18:31:29.068Z,11.12
2018-05-13T18:33:55.810Z,13.38
2018-05-13T18:36:22.434Z,20.88
2018-05-13T18:38:49.091Z,11.75
2018-05-13T18:41:15.726Z,14.65
2018-05-13T18:43:42.364Z,13.38
2018-05-13T18:46:09.016Z,13.10
2018-05-13T18:48:35.648Z,14.40
2018-05-13T18:51:02.395Z,12.95
2018-05-13T18:53:29.023Z,12.88
2018-05-13T18:55:55.775Z,13.98
2018-05-13T18:58:22.506Z,14.60
2018-05-13T19:00:49.147Z,13.62
2018-05-13T19:03:15.782Z,14.57
2018-05-13T19:05:42.540Z,27.62
2018-05-13T19:08:09.170Z,42.53
2018-05-13T19:10:35.915Z,16.00
2018-05-13T19:13:02.661Z,21.87
2018-05-13T19:15:29.395Z,15.63
2018-05-13T19:17:56.019Z,15.88
2018-05-13T19:20:22.667Z,15.45
2018-05-13T19:22:49.304Z,19.65
2018-05-13T19:25:16.055Z,17.60
2018-05-13T19:27:42.794Z,15.63
2018-05-13T19:30:09.538Z,25.52
2018-05-13T19:32:36.167Z,15.63
2018-05-13T19:35:02.815Z,15.25
2018-05-13T19:37:29.549Z,13.52
2018-05-13T19:39:56.198Z,15.75
2018-05-13T19:42:22.934Z,16.70
2018-05-13T19:44:49.559Z,18.73
2018-05-13T19:47:16.219Z,15.43
2018-05-13T19:49:42.842Z,15.55
2018-05-13T19:52:09.590Z,18.67
2018-05-13T19:54:36.237Z,17.05
2018-05-13T19:57:02.882Z,16.62
2018-05-13T19:59:29.623Z,15.63
2018-05-13T20:01:56.264Z,19.58
2018-05-13T20:04:22.899Z,25.30
2018-05-13T20:06:49.640Z,19.17
2018-05-13T20:09:16.364Z,16.73
2018-05-13T20:11:42.918Z,18.12
2018-05-13T20:14:09.552Z,18.27
2018-05-13T20:16:36.191Z,21.00
2018-05-13T20:19:02.923Z,19.80
2018-05-13T20:21:29.675Z,20.17
2018-05-13T20:23:56.420Z,17.85
2018-05-13T20:26:23.150Z,22.00
2018-05-13T20:28:49.794Z,18.70
2018-05-13T20:31:16.427Z,20.88
2018-05-13T20:33:43.063Z,19.80
2018-05-13T20:36:09.695Z,29.65
2018-05-13T20:38:36.339Z,19.67
2018-05-13T20:41:02.980Z,19.65
2018-05-13T20:43:29.655Z,23.83
2018-05-13T20:45:56.278Z,20.55
2018-05-13T20:48:22.955Z,24.30
2018-05-13T20:50:49.578Z,19.45
2018-05-13T20:53:16.223Z,20.77
2018-05-13T20:55:42.927Z,19.65
2018-05-13T20:58:09.616Z,19.87
2018-05-13T21:00:36.307Z,21.75
2018-05-13T21:03:02.943Z,19.70
2018-05-13T21:05:29.580Z,18.33
2018-05-13T21:07:56.326Z,20.15
2018-05-13T21:10:22.947Z,20.65
2018-05-13T21:12:49.578Z,19.95
2018-05-13T21:15:16.243Z,20.27
2018-05-13T21:17:42.876Z,20.23
2018-05-13T21:20:09.518Z,19.05
2018-05-13T21:22:36.146Z,20.40
2018-05-13T21:25:02.790Z,24.17
2018-05-13T21:27:29.424Z,19.30
2018-05-13T21:29:56.066Z,21.25
2018-05-13T21:32:22.699Z,19.35
2018-05-13T21:34:49.344Z,20.80
2018-05-13T21:37:15.977Z,19.08
2018-05-13T21:39:42.635Z,19.30
2018-05-13T21:42:09.392Z,19.67
2018-05-13T21:44:36.040Z,20.30
2018-05-13T21:47:02.784Z,18.75
2018-05-13T21:49:29.499Z,20.88
2018-05-13T21:51:56.131Z,21.90
2018-05-13T21:54:22.771Z,21.73
2018-05-13T21:56:49.406Z,22.67
2018-05-13T21:59:16.043Z,20.40
2018-05-13T22:01:42.676Z,21.12
2018-05-13T22:04:09.303Z,24.63
2018-05-13T22:06:35.946Z,22.10
2018-05-13T22:09:02.571Z,20.65
2018-05-13T22:11:29.247Z,21.35
2018-05-13T22:13:55.991Z,19.37
2018-05-13T22:16:22.635Z,21.20
2018-05-13T22:18:49.271Z,21.35
2018-05-13T22:21:15.911Z,22.37
2018-05-13T22:23:42.541Z,21.30
2018-05-13T22:26:09.180Z,22.87
2018-05-13T22:28:35.828Z,21.40
2018-05-13T22:31:02.473Z,24.37
2018-05-13T22:33:29.098Z,22.60
2018-05-13T22:35:55.745Z,22.33
2018-05-13T22:38:22.482Z,21.62
2018-05-13T22:40:49.128Z,22.55
2018-05-13T22:43:15.870Z,21.10
2018-05-13T22:45:42.516Z,21.73
2018-05-13T22:48:09.151Z,21.12
2018-05-13T22:50:35.878Z,21.65
2018-05-13T22:53:02.526Z,21.42
2018-05-13T22:55:29.149Z,20.30
2018-05-13T22:57:55.782Z,21.70
2018-05-13T23:00:22.415Z,19.58
2018-05-13T23:02:49.107Z,19.60
2018-05-13T23:05:15.728Z,19.25
2018-05-13T23:07:42.377Z,19.23
2018-05-13T23:10:08.994Z,21.23
2018-05-13T23:12:35.735Z,19.83
2018-05-13T23:15:02.375Z,20.60
2018-05-13T23:17:29.015Z,20.83
2018-05-13T23:19:55.649Z,21.62
2018-05-13T23:22:28.155Z,22.15
2018-05-13T23:24:54.774Z,20.58
2018-05-13T23:27:21.511Z,19.62
2018-05-13T23:29:48.139Z,21.83
2018-05-13T23:32:14.891Z,21.85
2018-05-13T23:34:41.511Z,20.02
2018-05-13T23:37:08.142Z,22.35
2018-05-13T23:39:34.775Z,21.55
2018-05-13T23:42:01.464Z,21.98
2018-05-13T23:44:28.111Z,20.00
2018-05-13T23:46:54.735Z,19.92
2018-05-13T23:49:21.379Z,26.23
2018-05-13T23:51:48.110Z,21.10
2018-05-13T23:54:14.848Z,21.05
2018-05-13T23:56:41.484Z,24.70
2018-05-13T23:59:08.131Z,18.58
